Dangriga, Belize

12:45 PM CST on December 07, 2016 (GMT -0600)
George Price Drive, Dangriga | | Change Station

Elev 20 ft 16.96 °N, 88.23 °W | Updated 20 seconds ago

Mostly Cloudy
Mostly Cloudy
84.8 °F
Feels Like 96 °F
N
8.2
Wind Variable Wind from NE
Gusts 11.0 mph

Today
High -- | Low -- °F
--% Chance of Precip.
Yesterday
High -- | Low -- °F
Precip. -- in
Pressure 29.97 in
Visibility 6.2 miles
Clouds Mostly Cloudy 2300 ft
Heat Index 96 °F
Dew Point 77 °F
Humidity 79%
Rainfall 0.00 in
Snow Depth Not available.
6:10 AM 5:19 PM
First Quarter, 55% visible
METAR MZBZ 071800Z 14007KT 9999 BKN023 31/26 A2997 Q1016 NOSIG
Pressure 29.97 in
Visibility 6.2 miles
Clouds Mostly Cloudy 2300 ft
Heat Index 96 °F
Dew Point 77 °F
Humidity 79%
Rainfall 0.00 in
Snow Depth Not available.
6:10 AM 5:19 PM
First Quarter, 55% visible
METAR MZBZ 071800Z 14007KT 9999 BKN023 31/26 A2997 Q1016 NOSIG

10-Day Weather Forecast

No radar image for this location.
×

Almanac

Astronomy

Dec. 07, 2016 Rise Set
Actual Time
Civil Twilight
Nautical Twilight
Astronomical Twilight
Moon
Length of Visible Light
Length of Day
Tomorrow will be .
, % of the Moon is Illuminated

Today's Extremes

Country Highs Country Lows

Community

WunderPhotos

Upload Photos

1,956,162 photos uploaded!

WunderBlog® & News

Nearby

Air Quality

  Air Quality AQ Index Pollutant
Not available.

Snow Depth

Station Depth Elevation

Earthquake Activity

City Distance Mag. Time & Date
Minimum magnitude displayed is 2.5.

Coastal Water Temperatures

Place Temperature

Stations

Nearby Weather Stations

Station Location Temp. Windchill Dew Point Humidity Wind Precip. Elev Updated Type